Terminal Aerodrome Forecast
Issued by NWS

Home | Current Version | Previous Version | Graphics & Text | Print | Product List | Glossary On
Versions: 1 2 3 4 5 6 7 8 9 10 11 12 13 14
000
FTUS43 KOAX 251700
TAFCDR
TAF
KCDR 251722Z 2518/2618 07010KT P6SM SKC
     FM252300 15011KT P6SM FEW080
     FM260800 33007KT P6SM SKC=

USA.gov is the U.S. government's official web portal to all federal, state and local government web resources and services.